sensor_id;sensor_type;location;lat;lon;timestamp;P1;durP1;ratioP1;P2;durP2;ratioP2
64467;SDS011;50853;46.836;16.820;2023-03-11T07:13:15;4.30;;;2.00;;
64467;SDS011;50853;46.836;16.820;2023-03-11T07:15:41;5.85;;;2.17;;
64467;SDS011;50853;46.836;16.820;2023-03-11T07:18:07;7.40;;;2.20;;
64467;SDS011;50853;46.836;16.820;2023-03-11T07:20:33;6.93;;;2.70;;
64467;SDS011;50853;46.836;16.820;2023-03-11T07:22:59;7.18;;;2.15;;
64467;SDS011;50853;46.836;16.820;2023-03-11T07:25:25;9.82;;;2.35;;
64467;SDS011;50853;46.836;16.820;2023-03-11T07:27:53;9.48;;;2.25;;
64467;SDS011;50853;46.836;16.820;2023-03-11T07:30:19;4.82;;;2.00;;
64467;SDS011;50853;46.836;16.820;2023-03-11T07:32:45;9.07;;;2.55;;
64467;SDS011;50853;46.836;16.820;2023-03-11T07:35:11;6.93;;;2.15;;
64467;SDS011;50853;46.836;16.820;2023-03-11T07:37:36;4.32;;;1.88;;
64467;SDS011;50853;46.836;16.820;2023-03-11T07:40:02;5.80;;;2.08;;
64467;SDS011;50853;46.836;16.820;2023-03-11T15:41:09;1.60;;;0.90;;
64467;SDS011;50853;46.836;16.820;2023-03-11T15:43:47;1.60;;;0.87;;
64467;SDS011;50853;46.836;16.820;2023-03-11T15:46:13;1.80;;;0.70;;
64467;SDS011;50853;46.836;16.820;2023-03-11T15:48:41;3.72;;;0.95;;
64467;SDS011;50853;46.836;16.820;2023-03-11T15:51:16;1.55;;;0.73;;
64467;SDS011;50853;46.836;16.820;2023-03-11T15:56:10;2.33;;;1.00;;
64467;SDS011;50853;46.836;16.820;2023-03-11T15:58:42;5.60;;;1.13;;
64467;SDS011;50853;46.836;16.820;2023-03-11T16:01:08;1.35;;;0.90;;
64467;SDS011;50853;46.836;16.820;2023-03-11T16:03:34;1.95;;;0.93;;
64467;SDS011;50853;46.836;16.820;2023-03-11T16:06:00;1.80;;;1.03;;
64467;SDS011;50853;46.836;16.820;2023-03-11T16:08:26;2.13;;;0.85;;
64467;SDS011;50853;46.836;16.820;2023-03-11T16:10:52;2.63;;;0.77;;
64467;SDS011;50853;46.836;16.820;2023-03-11T16:13:17;2.17;;;0.90;;
64467;SDS011;50853;46.836;16.820;2023-03-11T16:15:43;2.20;;;1.00;;
64467;SDS011;50853;46.836;16.820;2023-03-11T16:18:10;1.02;;;0.60;;
64467;SDS011;50853;46.836;16.820;2023-03-11T16:20:43;2.47;;;0.93;;
64467;SDS011;50853;46.836;16.820;2023-03-11T16:23:21;6.88;;;1.20;;
64467;SDS011;50853;46.836;16.820;2023-03-11T16:25:51;1.92;;;0.80;;
64467;SDS011;50853;46.836;16.820;2023-03-11T18:18:52;5.63;;;2.30;;
64467;SDS011;50853;46.836;16.820;2023-03-11T18:21:21;5.97;;;1.80;;
64467;SDS011;50853;46.836;16.820;2023-03-11T18:23:50;13.63;;;2.47;;
64467;SDS011;50853;46.836;16.820;2023-03-11T18:26:18;10.55;;;2.08;;
64467;SDS011;50853;46.836;16.820;2023-03-11T18:28:44;10.93;;;2.63;;
64467;SDS011;50853;46.836;16.820;2023-03-11T18:31:14;6.47;;;2.03;;
64467;SDS011;50853;46.836;16.820;2023-03-11T18:33:42;5.78;;;2.17;;
64467;SDS011;50853;46.836;16.820;2023-03-11T18:36:13;8.98;;;2.15;;
64467;SDS011;50853;46.836;16.820;2023-03-11T18:38:41;10.95;;;3.22;;
64467;SDS011;50853;46.836;16.820;2023-03-11T18:41:07;8.75;;;2.40;;
64467;SDS011;50853;46.836;16.820;2023-03-11T18:43:33;6.50;;;2.53;;
64467;SDS011;50853;46.836;16.820;2023-03-11T18:45:59;4.88;;;2.38;;
64467;SDS011;50853;46.836;16.820;2023-03-11T18:48:25;8.20;;;2.47;;
64467;SDS011;50853;46.836;16.820;2023-03-11T18:50:52;8.15;;;2.35;;
64467;SDS011;50853;46.836;16.820;2023-03-11T18:53:19;7.63;;;2.42;;
64467;SDS011;50853;46.836;16.820;2023-03-11T18:55:46;5.50;;;2.45;;
